الصفحة الرئيسية
METAR-TAF:

METAR-TAF

مطار :

São Vicente, الرأس الأخضر

Cesária Évora

دائرة عرض: 16-49-59N, خط طول: 25-03-25W, ارتفاع: 20 متر

مراقبة الطقس الحالي

تاريخ ووقت الإصدار 58 دقيقة قبل الساعة 18:00UTC
ريح 9 عقدة من الجنوب/الجنوب الغربي
درجة الحرارة 22°درجة مئوية
الرطوبة 57%
ضغط 1011 hPa
الرؤية 10 كم أو أكثر
غيوم قليلة على ارتفاع 2300 قدم
غيوم متفرقة على ارتفاع 10000 قدم

METAR: GVSV 221800Z 21009KT 9999 FEW023 SCT100 22/13 Q1011 NOSIG

زمن: 17:58 (18:58 UTC)

توقعات

تاريخ ووقت الإصدار 1ساعة و 58 دقيقة قبل الساعة 17:00UTC
التوقعات صالحة من22 الساعة 18 UTC إلى 23 الساعة 24 UTC
ريح 8 عقدة من الجنوب/الجنوب الغربي
الرؤية 10 كم أو أكثر
غيوم متفرقة على ارتفاع 2200 قدم
أصبح
من 22 الساعة 23 UTC إلى 23 الساعة 01 UTC
ريح 8 عقدة من الغرب
مؤقت
من 23 الساعة 10 UTC إلى 23 الساعة 20 UTC
ريح 10 عقدة من الغرب تتزايد حتى 20 عقدة

TAF: GVSV 221700Z 2218/2324 21008KT 9999 SCT022 BECMG 2223/2301 27008KT TEMPO 2310/2320 27010G20KT

أرصاد الطقس والتوقعات من أكثر من 4000 مطار (تقارير الطقس للمطار METAR والتنبؤ بالطقس بالمطارTAF).

المحطات المتاحة هي النقط الصفراء والحمراء على الخريطة.

حرك المؤشر فوق النقطة لمعرفة اسم المحطة.

ثم انقر لمعرفة أرصاد وتوقعات الطقس.

لتغيير الخارطة: اضغط على الأزرار الخضراء مع رمز الصليب الأسود للتكبير. على الزر الأخضر مع شرطة للتصغير، أو على الأسهم الخضراء للخرائط المجاورة.


METAR-TAF: